Time;durP1;ratioP1;P1;durP2;ratioP2;P2;SDS_P1;SDS_P2;PMS_P1;PMS_P2;Temp;Humidity;BMP_temperature;BMP_pressure;BME280_temperature;BME280_humidity;BME280_pressure;Samples;Min_cycle;Max_cycle;Signal;HPM_P1;HPM_P2
2022/05/22 00:00:58;;;;;;;9.32;5.12;;;10.10;99.90;;;;;;7364638;32;20777;-61
2022/05/22 00:05:00;;;;;;;9.18;5.12;;;10.20;99.90;;;;;;7347984;32;20119;-63
2022/05/22 00:09:02;;;;;;;11.38;4.97;;;10.30;99.90;;;;;;7354793;32;20119;-62
2022/05/22 00:13:04;;;;;;;10.65;5.12;;;10.30;99.90;;;;;;7359851;32;20216;-62
2022/05/22 00:17:08;;;;;;;12.43;5.43;;;10.30;99.90;;;;;;7355667;32;20500;-63
2022/05/22 00:21:09;;;;;;;8.63;5.50;;;10.30;99.90;;;;;;7360351;32;20245;-62
2022/05/22 00:25:11;;;;;;;9.65;4.43;;;10.20;99.90;;;;;;7348742;32;20115;-62
2022/05/22 00:29:16;;;;;;;12.45;4.95;;;10.20;99.90;;;;;;7356106;32;20269;-64
2022/05/22 00:33:18;;;;;;;7.43;4.75;;;10.20;99.90;;;;;;7358499;32;20167;-62
2022/05/22 00:37:20;;;;;;;9.35;4.80;;;10.20;99.90;;;;;;7354220;32;20152;-63
2022/05/22 00:41:22;;;;;;;13.27;4.70;;;10.10;99.90;;;;;;7347564;32;20114;-62
2022/05/22 00:45:24;;;;;;;11.40;5.03;;;10.20;99.90;;;;;;7355636;32;20545;-64
2022/05/22 00:49:31;;;;;;;10.85;4.87;;;10.20;99.90;;;;;;7353813;32;20103;-62
2022/05/22 00:53:39;;;;;;;10.73;4.68;;;10.20;99.90;;;;;;7338332;32;20285;-62
2022/05/22 00:57:48;;;;;;;10.77;4.87;;;10.10;99.90;;;;;;7366049;32;20214;-62
2022/05/22 01:01:50;;;;;;;7.50;5.12;;;10.10;99.90;;;;;;7344091;32;20118;-61
2022/05/22 01:05:54;;;;;;;11.85;5.40;;;10.10;99.90;;;;;;7371675;32;20700;-62
2022/05/22 01:09:55;;;;;;;10.57;5.43;;;10.10;99.90;;;;;;7364721;32;20182;-61
2022/05/22 01:14:06;;;;;;;12.55;5.78;;;10.10;99.90;;;;;;7353542;32;20238;-61
2022/05/22 01:18:08;;;;;;;9.65;5.62;;;10.30;99.90;;;;;;7361308;32;20126;-61
2022/05/22 01:22:15;;;;;;;11.18;5.53;;;10.40;99.90;;;;;;7369360;32;20234;-61
2022/05/22 01:26:17;;;;;;;10.68;5.15;;;10.50;99.90;;;;;;7365112;32;20161;-61
2022/05/22 01:30:22;;;;;;;10.48;5.37;;;10.40;99.90;;;;;;7371216;32;20130;-61
2022/05/22 01:34:24;;;;;;;15.18;5.55;;;10.50;99.90;;;;;;7367795;32;20214;-62
2022/05/22 01:38:26;;;;;;;7.95;4.93;;;10.60;99.90;;;;;;7363986;32;20110;-62
2022/05/22 01:42:29;;;;;;;9.35;5.72;;;10.50;99.90;;;;;;7360180;32;20145;-62
2022/05/22 01:46:31;;;;;;;9.57;5.22;;;10.50;99.90;;;;;;7351865;32;20116;-61
2022/05/22 01:50:33;;;;;;;8.70;5.30;;;10.40;99.90;;;;;;7360576;32;20357;-61
2022/05/22 01:54:35;;;;;;;6.60;4.72;;;10.30;99.90;;;;;;7358054;32;20138;-61
2022/05/22 01:58:37;;;;;;;7.32;4.72;;;10.30;99.90;;;;;;7366446;32;20373;-61
2022/05/22 02:02:39;;;;;;;8.02;4.93;;;10.20;99.90;;;;;;7373431;32;20467;-61
2022/05/22 02:08:18;;;;;;;9.57;5.30;;;10.20;99.90;;;;;;7363645;32;20111;-62
2022/05/22 02:11:05;;;;;;;7.62;5.03;;;10.00;99.90;;;;;;7351705;32;20119;-61
2022/05/22 02:15:07;;;;;;;12.85;5.45;;;10.00;99.90;;;;;;7366786;32;20141;-62
2022/05/22 02:19:10;;;;;;;11.85;5.53;;;10.00;99.90;;;;;;7351586;32;20238;-61
2022/05/22 02:23:12;;;;;;;11.38;5.45;;;10.00;99.90;;;;;;7354544;32;20241;-62
2022/05/22 02:27:13;;;;;;;9.20;5.50;;;10.00;99.90;;;;;;7366771;32;20219;-61
2022/05/22 02:31:15;;;;;;;10.52;5.40;;;10.00;99.90;;;;;;7367059;32;20107;-61
2022/05/22 02:35:17;;;;;;;10.32;5.60;;;9.90;99.90;;;;;;7352160;32;20115;-61
2022/05/22 02:39:19;;;;;;;12.18;5.35;;;9.90;99.90;;;;;;7370586;32;20233;-61
2022/05/22 02:43:21;;;;;;;9.73;5.05;;;9.90;99.90;;;;;;7343774;32;20161;-62
2022/05/22 02:47:22;;;;;;;9.90;5.22;;;9.80;99.90;;;;;;7365969;32;20133;-61
2022/05/22 02:51:24;;;;;;;9.80;5.07;;;9.80;99.90;;;;;;7355500;32;20139;-63
2022/05/22 02:55:26;;;;;;;11.65;5.18;;;9.80;99.90;;;;;;7361965;32;20157;-61
2022/05/22 02:59:28;;;;;;;9.93;5.35;;;9.80;99.90;;;;;;7369149;32;20137;-61
2022/05/22 03:03:31;;;;;;;11.77;5.47;;;9.80;99.90;;;;;;7362344;32;20645;-61
2022/05/22 03:07:35;;;;;;;12.20;5.75;;;9.80;99.90;;;;;;7356066;32;20617;-61
2022/05/22 03:11:39;;;;;;;12.32;5.60;;;9.80;99.90;;;;;;7350074;32;20455;-61
2022/05/22 03:15:41;;;;;;;8.00;5.10;;;9.90;99.90;;;;;;7364496;32;20122;-61
2022/05/22 03:19:43;;;;;;;12.55;5.60;;;9.90;99.90;;;;;;7357434;32;20126;-61
2022/05/22 03:23:44;;;;;;;10.45;5.50;;;9.80;99.90;;;;;;7366409;32;20107;-61
2022/05/22 03:27:46;;;;;;;9.45;5.20;;;9.80;99.90;;;;;;7360991;32;20106;-60
2022/05/22 03:31:48;;;;;;;7.75;5.30;;;9.80;99.90;;;;;;7346513;32;20103;-61
2022/05/22 03:35:50;;;;;;;13.27;5.97;;;9.70;99.90;;;;;;7364755;32;20225;-60
2022/05/22 03:39:55;;;;;;;14.23;6.37;;;9.80;99.90;;;;;;7368696;32;20440;-61
2022/05/22 03:43:56;;;;;;;13.73;6.37;;;9.90;99.90;;;;;;7356783;32;20127;-61
2022/05/22 03:47:58;;;;;;;9.90;6.22;;;9.90;99.90;;;;;;7353549;32;20107;-61
2022/05/22 03:52:00;;;;;;;15.05;6.47;;;10.00;99.90;;;;;;7360123;32;20116;-60
2022/05/22 03:56:17;;;;;;;14.35;7.35;;;10.00;99.90;;;;;;7344052;32;20506;-61
2022/05/22 04:00:20;;;;;;;17.50;6.80;;;10.00;99.90;;;;;;7358817;32;20112;-60
2022/05/22 04:04:22;;;;;;;11.95;6.10;;;10.00;99.90;;;;;;7349485;32;20176;-61
2022/05/22 04:08:24;;;;;;;13.80;6.07;;;10.00;99.90;;;;;;7363895;32;20221;-61
2022/05/22 04:12:25;;;;;;;9.73;5.78;;;10.10;99.90;;;;;;7349068;32;20140;-62
2022/05/22 04:16:27;;;;;;;17.40;6.78;;;10.20;99.90;;;;;;7350317;32;20145;-61
2022/05/22 04:20:29;;;;;;;13.20;6.30;;;10.30;99.90;;;;;;7355862;32;20506;-61
2022/05/22 04:28:51;;;;;;;12.55;6.47;;;10.50;99.90;;;;;;7364800;32;20111;-61
2022/05/22 04:32:53;;;;;;;13.88;7.57;;;10.60;99.90;;;;;;7369771;32;20205;-62
2022/05/22 04:36:55;;;;;;;13.68;6.53;;;10.70;99.90;;;;;;7345524;32;20110;-62
2022/05/22 04:41:01;;;;;;;8.70;6.65;;;10.80;99.90;;;;;;7330443;32;20111;-61
2022/05/22 04:45:05;;;;;;;14.93;6.25;;;10.90;99.90;;;;;;7356350;32;20274;-61
2022/05/22 04:49:07;;;;;;;13.70;6.40;;;11.20;99.90;;;;;;7359068;32;20237;-61
2022/05/22 04:53:09;;;;;;;11.73;5.90;;;11.50;99.90;;;;;;7361868;32;20167;-61
2022/05/22 04:57:11;;;;;;;10.50;5.65;;;12.00;99.90;;;;;;7359851;32;20492;-61
2022/05/22 05:01:13;;;;;;;9.65;4.80;;;12.60;99.90;;;;;;7339063;32;20544;-61
2022/05/22 05:05:15;;;;;;;13.90;5.15;;;12.70;99.90;;;;;;7294556;32;20155;-60
2022/05/22 05:09:17;;;;;;;13.30;5.10;;;12.80;99.90;;;;;;7237367;32;20176;-61
2022/05/22 05:13:20;;;;;;;12.13;4.55;;;13.00;99.90;;;;;;7288785;32;20502;-60
2022/05/22 05:17:22;;;;;;;13.35;5.20;;;13.20;99.90;;;;;;7293612;32;20116;-61
2022/05/22 05:21:23;;;;;;;7.32;4.55;;;13.60;99.90;;;;;;7294195;32;20263;-61
2022/05/22 05:25:25;;;;;;;9.45;4.50;;;13.80;99.90;;;;;;7243390;32;20138;-62
2022/05/22 05:29:28;;;;;;;12.35;4.50;;;13.80;99.90;;;;;;7292384;32;20537;-62
2022/05/22 05:33:34;;;;;;;15.02;4.60;;;13.80;99.90;;;;;;7286092;32;20129;-62
2022/05/22 05:37:36;;;;;;;12.07;4.50;;;13.80;99.90;;;;;;7283697;32;20497;-61
2022/05/22 05:41:38;;;;;;;11.10;4.07;;;13.90;99.90;;;;;;7234177;32;20208;-61
2022/05/22 05:45:41;;;;;;;12.02;4.37;;;13.90;99.90;;;;;;7275533;32;20199;-61
2022/05/22 05:49:43;;;;;;;11.12;3.90;;;14.00;99.90;;;;;;7239418;32;20139;-61
2022/05/22 05:53:45;;;;;;;8.32;3.95;;;14.00;99.90;;;;;;7241188;32;20216;-61
2022/05/22 05:57:46;;;;;;;8.38;3.75;;;14.10;99.90;;;;;;7240155;32;20134;-61
2022/05/22 06:01:48;;;;;;;10.85;4.50;;;14.20;99.90;;;;;;7328182;32;20115;-60
2022/05/22 06:05:50;;;;;;;12.02;3.87;;;14.30;99.90;;;;;;7365988;32;20115;-66
2022/05/22 06:09:52;;;;;;;8.25;3.70;;;14.20;99.90;;;;;;7365963;32;20151;-66
2022/05/22 06:13:54;;;;;;;7.65;3.80;;;14.30;99.90;;;;;;7347738;32;20213;-66
2022/05/22 06:17:56;;;;;;;7.85;3.47;;;14.90;99.90;;;;;;7361033;32;20175;-65
2022/05/22 06:21:58;;;;;;;7.85;3.03;;;16.00;99.90;;;;;;7367211;32;20111;-66
2022/05/22 06:25:59;;;;;;;8.77;2.92;;;17.00;99.90;;;;;;7370310;32;20111;-66
2022/05/22 06:30:03;;;;;;;8.15;2.53;;;18.10;99.90;;;;;;7368458;32;20166;-66
2022/05/22 06:34:05;;;;;;;8.73;3.05;;;19.00;99.90;;;;;;7357871;32;20106;-66
2022/05/22 06:38:08;;;;;;;8.18;2.58;;;19.90;99.90;;;;;;7364250;32;20488;-65
2022/05/22 06:42:22;;;;;;;7.53;1.98;;;20.60;99.90;;;;;;7367510;32;20145;-65
2022/05/22 06:46:30;;;;;;;10.20;2.65;;;21.30;99.90;;;;;;7358576;32;20174;-65
2022/05/22 06:50:32;;;;;;;6.72;2.60;;;21.80;99.90;;;;;;7362582;32;20314;-65
2022/05/22 06:54:34;;;;;;;8.43;2.55;;;21.90;99.90;;;;;;7368542;32;20616;-66
2022/05/22 06:58:36;;;;;;;13.70;3.22;;;22.10;99.90;;;;;;7366479;32;20733;-65
2022/05/22 07:02:39;;;;;;;14.13;2.97;;;21.60;99.90;;;;;;7373815;32;20240;-58
2022/05/22 07:06:41;;;;;;;9.32;2.40;;;21.50;99.90;;;;;;7354854;32;20138;-57
2022/05/22 07:15:04;;;;;;;11.32;3.67;;;19.80;99.90;;;;;;7364331;32;20252;-59
2022/05/22 07:19:07;;;;;;;10.95;3.58;;;19.10;99.90;;;;;;7352484;32;20115;-59
2022/05/22 07:23:09;;;;;;;9.85;3.28;;;18.50;99.90;;;;;;7353977;32;20133;-58
2022/05/22 07:27:11;;;;;;;12.00;5.35;;;18.20;99.90;;;;;;7361769;32;20153;-59
2022/05/22 07:31:18;;;;;;;9.73;4.50;;;18.00;99.90;;;;;;7362564;32;20586;-59
2022/05/22 07:35:19;;;;;;;12.93;5.70;;;18.00;99.90;;;;;;7365159;32;20253;-58
2022/05/22 07:39:21;;;;;;;12.30;5.20;;;17.70;99.90;;;;;;7361701;32;20158;-57
2022/05/22 07:43:23;;;;;;;12.70;5.85;;;17.60;99.90;;;;;;7347463;32;20563;-58
2022/05/22 07:47:25;;;;;;;14.50;5.68;;;17.40;99.90;;;;;;7359862;32;20107;-58
2022/05/22 07:51:27;;;;;;;12.93;6.15;;;17.50;99.90;;;;;;7364341;32;20129;-57
2022/05/22 07:55:28;;;;;;;13.90;6.57;;;17.30;99.90;;;;;;7363924;32;20107;-57
2022/05/22 07:59:37;;;;;;;14.63;4.80;;;17.40;99.90;;;;;;7347703;32;20129;-58
2022/05/22 08:03:39;;;;;;;15.60;5.03;;;17.50;99.90;;;;;;7348467;32;20111;-57
2022/05/22 08:07:41;;;;;;;13.90;5.75;;;17.70;99.90;;;;;;7361059;32;20231;-59
2022/05/22 08:11:43;;;;;;;11.73;5.00;;;17.90;99.90;;;;;;7347296;32;20102;-59
2022/05/22 08:15:45;;;;;;;12.65;5.07;;;17.90;99.90;;;;;;7348194;32;20133;-59
2022/05/22 08:19:46;;;;;;;13.55;6.03;;;17.80;99.90;;;;;;7366714;32;20648;-59
2022/05/22 08:23:48;;;;;;;12.45;4.85;;;17.90;99.90;;;;;;7369880;32;20106;-58
2022/05/22 08:27:52;;;;;;;11.45;4.72;;;18.20;99.90;;;;;;7349995;32;20129;-59
2022/05/22 08:31:53;;;;;;;10.88;4.97;;;18.70;99.90;;;;;;7351047;32;20232;-58
2022/05/22 08:35:55;;;;;;;10.57;4.43;;;19.10;99.90;;;;;;7361419;32;20185;-59
2022/05/22 08:39:57;;;;;;;14.05;3.90;;;19.60;99.90;;;;;;7354228;32;20133;-59
2022/05/22 08:44:11;;;;;;;13.95;4.75;;;20.00;99.90;;;;;;7364772;32;20153;-58
2022/05/22 08:48:21;;;;;;;11.12;5.40;;;20.50;99.90;;;;;;7334667;32;20131;-58
2022/05/22 08:52:41;;;;;;;10.35;4.40;;;20.70;99.90;;;;;;7356926;32;20186;-59
2022/05/22 09:01:16;;;;;;;10.63;3.83;;;20.50;99.90;;;;;;7357345;32;20237;-63
2022/05/22 09:05:23;;;;;;;12.25;3.42;;;20.70;99.90;;;;;;7347592;32;20236;-66
2022/05/22 09:09:27;;;;;;;;;;;21.00;99.90;;;;;;7331080;32;20168;-66
2022/05/22 09:13:39;;;;;;;10.50;3.20;;;21.00;99.90;;;;;;7356466;32;20448;-66
2022/05/22 09:17:52;;;;;;;10.32;3.12;;;21.10;99.90;;;;;;7364129;32;20111;-66
2022/05/22 09:22:05;;;;;;;12.85;3.42;;;21.90;99.90;;;;;;7362772;32;20495;-66
2022/05/22 09:26:23;;;;;;;9.25;3.20;;;22.50;99.90;;;;;;7355483;32;20552;-66
2022/05/22 09:30:50;;;;;;;10.40;2.80;;;23.10;99.90;;;;;;7336553;32;20278;-66
2022/05/22 09:35:25;;;;;;;9.48;3.30;;;23.30;99.90;;;;;;7354297;32;20107;-66
2022/05/22 09:39:40;;;;;;;12.85;4.30;;;22.50;99.90;;;;;;7357242;32;20543;-66
2022/05/22 09:44:16;;;;;;;11.90;4.32;;;21.50;99.90;;;;;;7370387;32;20111;-66
2022/05/22 09:48:41;;;;;;;9.40;3.62;;;20.40;99.90;;;;;;7365607;32;20909;-67
2022/05/22 09:53:09;;;;;;;11.43;4.40;;;20.10;99.90;;;;;;7350498;32;20209;-66
2022/05/22 09:57:23;;;;;;;11.43;3.80;;;19.90;99.90;;;;;;7341138;32;20466;-67
2022/05/22 10:01:32;;;;;;;9.27;4.18;;;19.50;99.90;;;;;;7354697;32;20217;-60
2022/05/22 10:05:59;;;;;;;10.55;5.00;;;19.20;99.90;;;;;;7355966;32;20111;-60
2022/05/22 10:10:12;;;;;;;8.87;4.07;;;19.30;99.90;;;;;;7336120;32;20210;-60
2022/05/22 10:14:23;;;;;;;11.05;3.97;;;21.00;99.90;;;;;;7348898;32;20705;-59
2022/05/22 10:18:44;;;;;;;10.52;3.12;;;22.30;99.90;;;;;;7351055;32;20356;-60
2022/05/22 10:23:02;;;;;;;9.85;3.75;;;23.00;99.90;;;;;;7364809;32;20179;-60
2022/05/22 10:27:11;;;;;;;19.95;3.75;;;23.20;99.90;;;;;;7367808;32;20136;-60
2022/05/22 10:31:20;;;;;;;8.57;3.10;;;23.10;99.90;;;;;;7352712;32;20118;-61
2022/05/22 10:35:22;;;;;;;10.52;3.33;;;22.90;98.30;;;;;;7365295;32;20554;-59
2022/05/22 10:39:24;;;;;;;12.25;3.62;;;23.00;99.90;;;;;;7345161;32;20157;-59
2022/05/22 10:43:25;;;;;;;9.43;3.12;;;22.40;99.90;;;;;;7355117;32;20452;-65
2022/05/22 10:47:29;;;;;;;5.68;2.62;;;22.70;99.90;;;;;;7357541;32;20416;-65
2022/05/22 10:51:30;;;;;;;8.45;3.25;;;22.40;99.90;;;;;;7366567;32;20114;-65
2022/05/22 10:55:39;;;;;;;9.60;3.03;;;22.50;99.90;;;;;;7352884;32;20213;-65
2022/05/22 10:59:41;;;;;;;7.00;2.62;;;22.30;99.90;;;;;;7339994;32;20107;-65
2022/05/22 11:03:43;;;;;;;10.45;3.45;;;21.80;99.90;;;;;;7359335;32;20737;-65
2022/05/22 11:07:51;;;;;;;8.38;2.90;;;21.90;99.90;;;;;;7363826;32;21019;-65
2022/05/22 11:12:08;;;;;;;9.27;2.50;;;22.50;99.30;;;;;;7356066;32;20123;-66
2022/05/22 11:16:16;;;;;;;11.00;2.93;;;22.50;99.90;;;;;;7359614;32;20593;-64
2022/05/22 11:20:23;;;;;;;7.78;3.22;;;21.50;94.10;;;;;;7363688;32;20253;-62
2022/05/22 11:24:39;;;;;;;11.90;2.83;;;21.60;99.20;;;;;;7363824;32;20202;-62
2022/05/22 11:29:07;;;;;;;8.65;2.45;;;22.20;96.40;;;;;;7363971;32;20216;-64
2022/05/22 11:33:24;;;;;;;5.87;2.20;;;22.30;99.90;;;;;;7362911;32;20092;-66
2022/05/22 11:38:07;;;;;;;6.05;2.22;;;22.90;97.20;;;;;;7353392;32;20206;-66
2022/05/22 11:42:31;;;;;;;9.45;2.60;;;23.40;94.50;;;;;;7362617;32;20119;-66
2022/05/22 11:47:03;;;;;;;6.87;2.30;;;23.80;93.10;;;;;;7365534;32;20233;-66
2022/05/22 11:51:23;;;;;;;9.55;2.67;;;23.60;92.00;;;;;;7349072;32;20224;-66
2022/05/22 11:55:58;;;;;;;8.85;2.70;;;24.20;94.00;;;;;;7365282;32;20274;-66
2022/05/22 12:00:11;;;;;;;6.28;2.47;;;24.00;91.90;;;;;;7354307;32;20246;-66
2022/05/22 12:04:31;;;;;;;10.52;2.75;;;23.90;81.90;;;;;;7363337;32;20237;-65
2022/05/22 12:08:56;;;;;;;11.00;2.80;;;23.60;87.60;;;;;;7350504;32;20569;-66
2022/05/22 12:13:17;;;;;;;10.65;2.28;;;23.60;91.20;;;;;;7361863;32;20170;-59
2022/05/22 12:17:42;;;;;;;5.75;2.47;;;23.80;93.40;;;;;;7363742;32;20455;-60
2022/05/22 12:22:08;;;;;;;5.07;2.12;;;23.70;90.10;;;;;;7313634;32;20115;-59
2022/05/22 12:26:13;;;;;;;6.57;2.50;;;23.70;91.00;;;;;;7358344;32;20115;-59
2022/05/22 12:30:26;;;;;;;8.55;2.70;;;23.50;86.10;;;;;;7361274;32;20209;-60
2022/05/22 12:34:47;;;;;;;7.93;2.70;;;23.30;83.60;;;;;;7357232;32;20178;-59
2022/05/22 12:39:00;;;;;;;7.53;2.60;;;23.20;87.70;;;;;;7361927;32;20132;-59
2022/05/22 12:43:04;;;;;;;9.05;2.80;;;23.60;89.50;;;;;;7362195;32;20111;-59
2022/05/22 12:47:13;;;;;;;7.47;2.35;;;23.70;86.10;;;;;;7360460;32;20214;-59
2022/05/22 12:51:15;;;;;;;6.65;2.20;;;23.70;86.70;;;;;;7360099;32;20190;-60
2022/05/22 12:55:33;;;;;;;6.65;2.33;;;23.60;89.00;;;;;;7359648;32;20755;-65
2022/05/22 12:59:35;;;;;;;6.00;1.95;;;23.80;88.00;;;;;;7351939;32;20294;-65
2022/05/22 13:03:41;;;;;;;7.95;2.72;;;23.80;84.80;;;;;;7360649;32;20111;-65
2022/05/22 13:07:43;;;;;;;10.63;2.85;;;23.70;84.60;;;;;;7358469;32;20133;-65
2022/05/22 13:11:52;;;;;;;6.87;2.78;;;23.60;85.60;;;;;;7362753;32;20137;-66
2022/05/22 13:16:09;;;;;;;7.25;2.25;;;23.70;84.20;;;;;;7347116;32;20734;-65
2022/05/22 13:20:23;;;;;;;8.68;2.40;;;23.70;83.60;;;;;;7351749;32;20226;-66
2022/05/22 13:24:29;;;;;;;7.93;2.00;;;23.40;82.40;;;;;;7361856;32;20107;-66
2022/05/22 13:28:37;;;;;;;7.07;2.00;;;23.20;81.60;;;;;;7352123;32;20116;-65
2022/05/22 13:32:43;;;;;;;6.47;2.42;;;23.20;88.80;;;;;;7351776;32;20100;-66
2022/05/22 13:36:55;;;;;;;7.35;2.47;;;23.50;84.10;;;;;;7348780;32;20479;-66
2022/05/22 13:41:45;;;;;;;8.68;1.95;;;23.40;83.60;;;;;;7347444;32;20115;-61
2022/05/22 13:46:17;;;;;;;6.60;2.08;;;23.50;87.40;;;;;;7345415;32;20249;-61
2022/05/22 13:54:59;;;;;;;6.93;1.83;;;23.60;87.60;;;;;;7361852;32;20115;-61
2022/05/22 13:59:01;;;;;;;5.47;2.17;;;23.70;89.40;;;;;;7342326;32;20115;-61
2022/05/22 14:03:04;;;;;;;11.55;2.87;;;23.60;90.10;;;;;;7363223;32;20401;-61
2022/05/22 14:07:09;;;;;;;5.25;2.15;;;23.60;85.40;;;;;;7357284;32;20446;-64
2022/05/22 14:11:25;;;;;;;7.62;2.12;;;23.60;87.20;;;;;;7360146;32;20177;-63
2022/05/22 14:15:28;;;;;;;5.95;2.10;;;23.40;84.50;;;;;;7365927;32;20616;-63
2022/05/22 14:19:36;;;;;;;8.13;2.10;;;23.50;84.80;;;;;;7362742;32;20549;-63
2022/05/22 14:28:14;;;;;;;6.28;2.45;;;23.30;84.30;;;;;;7366050;32;20099;-63
2022/05/22 14:32:20;;;;;;;8.73;2.78;;;23.30;85.20;;;;;;7347756;32;20206;-61
2022/05/22 14:36:22;;;;;;;6.57;1.87;;;23.00;82.80;;;;;;7358946;32;20143;-63
2022/05/22 14:40:32;;;;;;;6.35;2.15;;;23.00;86.90;;;;;;7369154;32;20257;-63
2022/05/22 14:44:36;;;;;;;8.18;2.33;;;23.20;90.20;;;;;;7352378;32;20529;-66
2022/05/22 14:48:41;;;;;;;6.00;2.20;;;23.20;87.40;;;;;;7352146;32;20115;-67
2022/05/22 14:52:52;;;;;;;5.28;1.98;;;23.10;88.50;;;;;;7352172;32;20226;-67
2022/05/22 14:57:18;;;;;;;7.22;2.10;;;23.40;90.30;;;;;;7364471;32;20131;-66
2022/05/22 15:01:31;;;;;;;7.20;2.53;;;23.10;90.90;;;;;;7347590;32;20114;-66
2022/05/22 15:05:34;;;;;;;6.22;2.80;;;22.70;90.30;;;;;;7364866;32;20348;-60
2022/05/22 15:09:37;;;;;;;11.35;2.85;;;22.60;90.50;;;;;;7359509;32;20138;-70
2022/05/22 15:13:39;;;;;;;12.77;8.20;;;22.30;91.40;;;;;;7352816;32;20865;-69
2022/05/22 15:18:01;;;;;;;7.03;2.47;;;22.40;91.30;;;;;;7365408;32;20150;-70
2022/05/22 15:26:41;;;;;;;6.37;2.10;;;22.30;88.90;;;;;;7353060;32;20248;-68
2022/05/22 15:30:53;;;;;;;4.70;2.15;;;22.20;91.10;;;;;;7359013;32;20130;-70
2022/05/22 15:34:59;;;;;;;5.60;2.40;;;22.30;91.40;;;;;;7363830;32;20511;-68
2022/05/22 15:39:07;;;;;;;8.40;2.45;;;22.40;91.60;;;;;;7368085;32;20119;-69
2022/05/22 15:43:13;;;;;;;5.15;2.03;;;22.10;90.60;;;;;;7365129;32;20115;-70
2022/05/22 15:47:30;;;;;;;7.03;2.37;;;22.10;92.70;;;;;;7361417;32;20115;-68
2022/05/22 15:51:33;;;;;;;6.90;2.97;;;22.00;92.70;;;;;;7364131;32;20271;-68
2022/05/22 15:55:39;;;;;;;5.30;1.70;;;22.10;92.80;;;;;;7356026;32;20107;-71
2022/05/22 15:59:41;;;;;;;8.32;2.47;;;21.90;92.60;;;;;;7363772;32;20295;-68
2022/05/22 16:03:49;;;;;;;4.93;2.28;;;22.10;94.30;;;;;;7366417;32;20559;-67
2022/05/22 16:07:52;;;;;;;8.18;2.25;;;21.90;92.50;;;;;;7363173;32;20107;-67
2022/05/22 16:11:54;;;;;;;11.55;2.58;;;21.90;94.00;;;;;;7364590;32;20474;-71
2022/05/22 16:15:56;;;;;;;6.53;2.33;;;22.10;94.40;;;;;;7367738;32;20729;-69
2022/05/22 16:20:08;;;;;;;7.18;2.40;;;22.10;93.60;;;;;;7348802;32;20107;-66
2022/05/22 16:24:10;;;;;;;5.43;2.10;;;22.00;94.10;;;;;;7345298;32;20123;-68
2022/05/22 16:28:11;;;;;;;8.90;2.72;;;21.80;94.20;;;;;;7354987;32;20680;-64
2022/05/22 16:32:13;;;;;;;8.43;2.28;;;21.70;94.00;;;;;;7354237;32;20104;-65
2022/05/22 16:36:15;;;;;;;9.00;2.78;;;21.60;95.00;;;;;;7342338;32;20492;-63
2022/05/22 16:40:18;;;;;;;6.40;2.33;;;21.70;96.10;;;;;;7360545;32;20194;-65
2022/05/22 16:44:19;;;;;;;5.20;2.08;;;21.60;96.20;;;;;;7359402;32;20525;-64
2022/05/22 16:57:07;;;;;;;5.57;2.20;;;21.40;95.60;;;;;;7365150;32;20553;-65
2022/05/22 17:01:09;;;;;;;6.80;2.50;;;21.30;97.10;;;;;;7355838;32;20499;-68
2022/05/22 17:05:12;;;;;;;6.15;2.30;;;21.20;97.90;;;;;;7364816;32;20502;-69
2022/05/22 17:09:16;;;;;;;4.90;2.30;;;21.20;99.30;;;;;;7361876;32;20106;-67
2022/05/22 17:13:18;;;;;;;6.12;2.35;;;21.20;99.40;;;;;;7350238;32;20855;-68
2022/05/22 17:17:21;;;;;;;5.50;2.28;;;21.00;99.90;;;;;;7341177;32;20114;-68
2022/05/22 17:21:23;;;;;;;8.73;2.60;;;20.90;99.90;;;;;;7348250;32;20111;-68
2022/05/22 17:25:27;;;;;;;8.93;2.58;;;20.80;99.90;;;;;;7358588;32;20232;-70
2022/05/22 17:29:30;;;;;;;9.63;2.85;;;21.00;99.90;;;;;;7351055;32;20122;-70
2022/05/22 17:33:32;;;;;;;5.22;2.45;;;20.90;99.90;;;;;;7355767;32;20107;-59
2022/05/22 17:37:37;;;;;;;10.35;3.17;;;20.80;99.90;;;;;;7355859;32;20107;-68
2022/05/22 17:41:39;;;;;;;6.00;2.08;;;20.70;99.90;;;;;;7344652;32;20222;-66
2022/05/22 17:45:40;;;;;;;6.57;2.10;;;20.50;99.90;;;;;;7356399;32;20186;-66
2022/05/22 17:49:42;;;;;;;6.82;2.28;;;20.50;99.90;;;;;;7354446;32;20171;-66
2022/05/22 17:53:45;;;;;;;8.23;2.30;;;20.50;99.90;;;;;;7361876;32;20111;-67
2022/05/22 17:57:47;;;;;;;7.15;2.35;;;20.50;99.90;;;;;;7364018;32;20664;-68
2022/05/22 18:01:48;;;;;;;8.05;2.60;;;20.50;99.90;;;;;;7352259;32;20111;-68
2022/05/22 18:05:52;;;;;;;8.30;2.50;;;20.30;99.90;;;;;;7371578;32;20538;-67
2022/05/22 18:10:00;;;;;;;5.78;2.40;;;20.30;99.90;;;;;;7360714;32;20201;-68
2022/05/22 18:18:23;;;;;;;6.35;2.35;;;20.10;99.90;;;;;;7361699;32;20168;-68
2022/05/22 18:22:30;;;;;;;7.72;2.80;;;20.10;99.90;;;;;;7349936;32;20480;-68
2022/05/22 18:26:32;;;;;;;8.18;3.03;;;20.00;99.90;;;;;;7367269;32;20241;-70
2022/05/22 18:30:35;;;;;;;7.40;2.40;;;19.80;99.90;;;;;;7364099;32;20157;-68
2022/05/22 18:34:38;;;;;;;6.75;2.78;;;19.60;99.90;;;;;;7345376;32;20796;-68
2022/05/22 18:38:41;;;;;;;7.82;2.40;;;19.60;99.90;;;;;;7368111;32;20114;-67
2022/05/22 18:42:50;;;;;;;8.85;2.72;;;19.40;99.90;;;;;;7352551;32;20107;-70
2022/05/22 18:46:52;;;;;;;8.07;2.53;;;19.20;99.90;;;;;;7352320;32;20163;-66
2022/05/22 18:50:54;;;;;;;7.35;2.70;;;19.10;99.90;;;;;;7361276;32;20704;-69
2022/05/22 18:54:56;;;;;;;7.35;3.20;;;19.00;99.90;;;;;;7368519;32;20681;-68
2022/05/22 18:58:58;;;;;;;7.85;2.70;;;18.80;99.90;;;;;;7359072;32;20133;-69
2022/05/22 19:03:01;;;;;;;10.95;3.33;;;18.70;99.90;;;;;;7366847;32;20137;-67
2022/05/22 19:07:03;;;;;;;10.27;3.00;;;18.60;99.90;;;;;;7359036;32;20137;-68
2022/05/22 19:11:08;;;;;;;8.15;3.10;;;18.50;99.90;;;;;;7350706;32;20870;-68
2022/05/22 19:15:10;;;;;;;7.07;2.70;;;18.40;99.90;;;;;;7367997;32;20099;-71
2022/05/22 19:19:12;;;;;;;10.63;3.33;;;18.30;99.90;;;;;;7360993;32;20122;-70
2022/05/22 19:23:15;;;;;;;11.90;3.20;;;18.20;99.90;;;;;;7359681;32;20179;-68
2022/05/22 19:27:19;;;;;;;8.52;3.30;;;18.10;99.90;;;;;;7366650;32;20632;-69
2022/05/22 19:31:24;;;;;;;8.85;3.75;;;18.00;99.90;;;;;;7343343;32;20112;-69
2022/05/22 19:35:26;;;;;;;6.82;3.10;;;17.90;99.90;;;;;;7365597;32;20133;-67
2022/05/22 19:39:34;;;;;;;12.73;3.42;;;17.80;99.90;;;;;;7369225;32;20590;-67
2022/05/22 19:48:03;;;;;;;10.45;3.30;;;17.60;99.90;;;;;;7366853;32;20523;-66
2022/05/22 19:52:04;;;;;;;10.57;2.97;;;17.60;99.90;;;;;;7361510;32;20131;-65
2022/05/22 20:00:35;;;;;;;6.45;3.20;;;17.30;99.90;;;;;;7362711;32;20683;-65
2022/05/22 20:04:37;;;;;;;10.73;3.75;;;17.30;99.90;;;;;;7352933;32;20206;-66
2022/05/22 20:08:48;;;;;;;8.48;3.65;;;17.20;99.90;;;;;;7364772;32;20127;-67
2022/05/22 20:12:50;;;;;;;9.65;3.67;;;17.10;99.90;;;;;;7339640;32;20107;-66
2022/05/22 20:16:51;;;;;;;8.43;3.55;;;17.10;99.90;;;;;;7356540;32;20133;-67
2022/05/22 20:20:57;;;;;;;8.18;3.50;;;17.10;99.90;;;;;;7361637;32;20099;-65
2022/05/22 20:24:59;;;;;;;7.75;3.55;;;17.00;99.90;;;;;;7360657;32;20129;-66
2022/05/22 20:29:02;;;;;;;9.82;4.00;;;17.00;99.90;;;;;;7348143;32;20118;-66
2022/05/22 20:33:06;;;;;;;9.05;3.60;;;17.00;99.90;;;;;;7363113;32;20103;-66
2022/05/22 20:37:08;;;;;;;12.35;6.37;;;16.90;99.90;;;;;;7347160;32;20606;-66
2022/05/22 20:41:12;;;;;;;9.82;4.25;;;16.90;99.90;;;;;;7344196;32;20219;-62
2022/05/22 20:45:19;;;;;;;10.18;4.35;;;16.80;99.90;;;;;;7347422;32;20281;-66
2022/05/22 20:49:21;;;;;;;8.00;4.00;;;16.70;99.90;;;;;;7363263;32;20491;-67
2022/05/22 20:53:23;;;;;;;10.05;4.25;;;16.70;99.90;;;;;;7359335;32;20145;-66
2022/05/22 20:57:31;;;;;;;11.52;4.50;;;16.60;99.90;;;;;;7360739;32;20178;-65
2022/05/22 21:01:33;;;;;;;10.02;4.15;;;16.50;99.90;;;;;;7362780;32;20856;-65
2022/05/22 21:05:38;;;;;;;7.10;3.85;;;16.40;99.90;;;;;;7348875;32;20191;-66
2022/05/22 21:09:40;;;;;;;9.80;3.90;;;16.30;99.90;;;;;;7358041;32;20215;-63
2022/05/22 21:13:42;;;;;;;7.55;3.90;;;16.30;99.90;;;;;;7363521;32;20103;-63
2022/05/22 21:17:45;;;;;;;8.80;4.05;;;16.30;99.90;;;;;;7364826;32;20421;-61
2022/05/22 21:21:46;;;;;;;11.00;4.62;;;16.30;99.90;;;;;;7342137;32;20122;-61
2022/05/22 21:30:12;;;;;;;8.32;4.30;;;16.20;99.90;;;;;;7363114;32;20241;-64
2022/05/22 21:34:13;;;;;;;10.48;4.72;;;16.20;99.90;;;;;;7360120;32;20170;-63
2022/05/22 21:38:15;;;;;;;11.30;5.50;;;16.10;99.90;;;;;;7366448;32;20209;-62
2022/05/22 21:42:17;;;;;;;9.38;4.15;;;16.10;99.90;;;;;;7361848;32;20120;-61
2022/05/22 21:46:19;;;;;;;7.80;4.22;;;16.00;99.90;;;;;;7373319;32;20193;-63
2022/05/22 21:50:21;;;;;;;9.07;4.82;;;16.00;99.90;;;;;;7366069;32;20107;-63
2022/05/22 21:54:23;;;;;;;9.40;4.20;;;15.90;99.90;;;;;;7358103;32;20538;-62
2022/05/22 21:58:28;;;;;;;9.70;4.05;;;15.90;99.90;;;;;;7363082;32;20222;-63
2022/05/22 22:02:29;;;;;;;8.77;4.62;;;15.90;99.90;;;;;;7358177;32;20129;-63
2022/05/22 22:06:31;;;;;;;6.95;4.32;;;15.90;99.90;;;;;;7349766;32;20126;-63